Time;durP1;ratioP1;P1;durP2;ratioP2;P2;SDS_P1;SDS_P2;PMS_P1;PMS_P2;Temp;Humidity;BMP_temperature;BMP_pressure;BME280_temperature;BME280_humidity;BME280_pressure;Samples;Min_cycle;Max_cycle;Signal;HPM_P1;HPM_P2
2022/11/09 00:01:43;;;;;;;0.57;0.47;;;12.60;99.90;;;;;;5008473;28;20335;-95
2022/11/09 00:04:10;;;;;;;1.83;0.70;;;12.60;99.90;;;;;;4998203;28;20230;-92
2022/11/09 00:06:36;;;;;;;1.37;0.73;;;12.60;99.90;;;;;;4983317;28;20239;-93
2022/11/09 00:09:04;;;;;;;0.33;0.33;;;12.60;99.90;;;;;;5008566;28;20183;-94
2022/11/09 00:11:29;;;;;;;8.37;0.83;;;12.70;99.90;;;;;;5023082;28;20215;-93
2022/11/09 00:13:55;;;;;;;2.53;1.13;;;12.70;99.90;;;;;;5016232;28;20566;-93
2022/11/09 00:16:21;;;;;;;7.63;0.80;;;12.70;99.90;;;;;;5018656;28;20218;-91
2022/11/09 00:18:47;;;;;;;0.67;0.53;;;12.70;99.90;;;;;;5003837;28;20258;-91
2022/11/09 00:21:16;;;;;;;0.73;0.50;;;12.70;99.90;;;;;;4982089;28;20199;-91
2022/11/09 00:23:42;;;;;;;1.07;0.97;;;12.60;99.90;;;;;;5006286;28;20209;-91
2022/11/09 00:26:10;;;;;;;0.40;0.40;;;12.70;99.90;;;;;;4996529;28;20231;-91
2022/11/09 00:28:36;;;;;;;0.40;0.40;;;12.60;99.90;;;;;;4996449;28;20231;-92
2022/11/09 00:31:09;;;;;;;0.80;0.43;;;12.50;99.90;;;;;;4995480;28;20749;-93
2022/11/09 00:33:35;;;;;;;4.03;1.50;;;12.50;99.90;;;;;;4999280;28;20223;-91
2022/11/09 00:36:08;;;;;;;0.33;0.33;;;12.50;99.90;;;;;;5007016;28;20191;-91
2022/11/09 00:38:35;;;;;;;2.07;1.00;;;12.50;99.90;;;;;;5027946;28;20202;-92
2022/11/09 00:41:02;;;;;;;0.70;0.70;;;12.50;99.90;;;;;;5017780;28;20250;-93
2022/11/09 00:43:28;;;;;;;3.83;0.43;;;12.50;99.90;;;;;;5027020;28;20673;-91
2022/11/09 00:45:54;;;;;;;3.33;0.70;;;12.50;99.90;;;;;;5016102;28;20231;-93
2022/11/09 00:48:20;;;;;;;1.80;0.90;;;12.50;99.90;;;;;;4991724;28;20201;-91
2022/11/09 00:50:54;;;;;;;1.17;0.60;;;12.50;99.90;;;;;;5000063;28;21202;-91
2022/11/09 00:53:21;;;;;;;0.30;0.30;;;12.50;99.90;;;;;;5031084;28;20408;-92
2022/11/09 00:56:00;;;;;;;2.33;0.60;;;12.50;99.90;;;;;;5016876;28;20219;-94
2022/11/09 00:58:29;;;;;;;1.37;0.80;;;12.50;99.90;;;;;;5026759;28;20233;-93
2022/11/09 01:00:56;;;;;;;2.00;1.70;;;12.50;99.90;;;;;;5015515;28;20688;-93
2022/11/09 01:03:23;;;;;;;2.47;0.73;;;12.50;99.90;;;;;;5033658;28;20244;-93
2022/11/09 01:05:49;;;;;;;3.80;0.73;;;12.40;99.90;;;;;;5015412;28;20214;-92
2022/11/09 01:08:15;;;;;;;4.10;1.10;;;12.30;99.90;;;;;;5018682;28;20285;-92
2022/11/09 01:10:42;;;;;;;3.37;1.53;;;12.30;99.90;;;;;;5017846;28;20317;-89
2022/11/09 01:13:10;;;;;;;0.67;0.67;;;12.30;99.90;;;;;;5027029;28;20214;-91
2022/11/09 01:15:44;;;;;;;0.73;0.70;;;12.20;99.90;;;;;;5018473;28;20318;-91
2022/11/09 01:18:11;;;;;;;1.80;0.63;;;12.20;99.90;;;;;;5016125;28;20178;-91
2022/11/09 01:20:41;;;;;;;1.77;1.20;;;12.20;99.90;;;;;;5026095;28;20260;-93
2022/11/09 01:23:08;;;;;;;1.43;0.70;;;12.20;99.90;;;;;;5026550;28;20778;-92
2022/11/09 01:25:34;;;;;;;2.13;0.67;;;12.20;99.90;;;;;;5024747;28;20236;-92
2022/11/09 01:28:00;;;;;;;3.23;1.43;;;12.20;99.90;;;;;;5017015;28;20234;-93
2022/11/09 01:30:25;;;;;;;2.57;1.17;;;12.20;99.90;;;;;;4999936;28;20214;-91
2022/11/09 01:32:52;;;;;;;0.57;0.57;;;12.20;99.90;;;;;;5015037;28;20656;-91
2022/11/09 01:35:18;;;;;;;6.20;1.30;;;12.20;99.90;;;;;;5001143;28;20237;-93
2022/11/09 01:37:44;;;;;;;1.10;0.63;;;12.20;99.90;;;;;;5000212;28;20734;-91
2022/11/09 01:40:10;;;;;;;3.07;1.10;;;12.30;99.90;;;;;;5001259;28;20214;-92
2022/11/09 01:42:37;;;;;;;1.43;0.93;;;12.40;99.90;;;;;;5015723;28;20264;-92
2022/11/09 01:45:18;;;;;;;2.43;1.27;;;12.30;99.90;;;;;;5015661;28;20233;-86
2022/11/09 01:48:16;;;;;;;6.40;0.80;;;12.30;99.90;;;;;;5026408;28;20560;-90
2022/11/09 01:50:52;;;;;;;5.83;0.60;;;12.40;99.90;;;;;;4996406;28;20250;-90
2022/11/09 01:53:22;;;;;;;8.23;1.20;;;12.40;99.90;;;;;;5011454;28;20325;-91
2022/11/09 01:55:50;;;;;;;0.73;0.70;;;12.40;99.90;;;;;;5019851;28;20250;-91
2022/11/09 01:58:23;;;;;;;1.13;0.80;;;12.50;99.90;;;;;;5026436;28;20284;-91
2022/11/09 02:00:50;;;;;;;0.70;0.70;;;12.40;99.90;;;;;;5006435;28;20289;-92
2022/11/09 02:03:27;;;;;;;1.20;0.83;;;12.40;99.90;;;;;;4996500;28;20683;-92
2022/11/09 02:05:53;;;;;;;0.67;0.67;;;12.50;99.90;;;;;;5010315;28;20271;-91
2022/11/09 02:08:22;;;;;;;1.00;0.97;;;12.50;99.90;;;;;;5015324;28;20265;-91
2022/11/09 02:11:05;;;;;;;7.20;1.73;;;12.40;99.90;;;;;;5018715;28;20219;-91
2022/11/09 02:13:32;;;;;;;1.33;0.73;;;12.50;99.90;;;;;;5006516;28;20223;-89
2022/11/09 02:15:59;;;;;;;6.10;1.47;;;12.60;99.90;;;;;;5006353;28;20708;-91
2022/11/09 02:18:25;;;;;;;2.97;0.90;;;12.50;99.90;;;;;;4980532;28;20219;-90
2022/11/09 02:20:53;;;;;;;0.60;0.60;;;12.60;99.90;;;;;;5005189;28;20258;-91
2022/11/09 02:23:19;;;;;;;1.60;1.27;;;12.60;99.90;;;;;;5005432;28;20216;-91
2022/11/09 02:25:49;;;;;;;1.10;0.87;;;12.50;99.90;;;;;;5006137;28;21238;-90
2022/11/09 02:28:16;;;;;;;2.40;1.10;;;12.50;99.90;;;;;;4995706;28;20219;-92
2022/11/09 02:30:45;;;;;;;2.57;1.03;;;12.50;99.90;;;;;;4997324;28;20223;-91
2022/11/09 02:33:11;;;;;;;0.93;0.77;;;12.50;99.90;;;;;;5009932;28;20692;-90
2022/11/09 02:35:36;;;;;;;1.30;1.20;;;12.50;99.90;;;;;;4983800;28;20226;-92
2022/11/09 02:38:02;;;;;;;4.70;1.27;;;12.50;99.90;;;;;;5000088;28;20308;-92
2022/11/09 02:40:35;;;;;;;1.37;1.27;;;12.50;99.90;;;;;;5017708;28;20309;-91
2022/11/09 02:43:01;;;;;;;4.37;1.37;;;12.50;99.90;;;;;;5023256;28;20215;-91
2022/11/09 02:45:27;;;;;;;2.43;0.60;;;12.50;99.90;;;;;;5017511;28;20227;-90
2022/11/09 02:47:53;;;;;;;0.97;0.80;;;12.50;99.90;;;;;;4992264;28;20672;-91
2022/11/09 02:50:19;;;;;;;6.57;1.37;;;12.50;99.90;;;;;;4991744;28;20223;-90
2022/11/09 02:52:44;;;;;;;4.80;1.00;;;12.50;99.90;;;;;;4975545;28;20290;-91
2022/11/09 02:55:10;;;;;;;0.93;0.50;;;12.50;99.90;;;;;;4994215;28;20267;-91
2022/11/09 02:57:36;;;;;;;1.13;0.90;;;12.50;99.90;;;;;;4968863;28;20239;-91
2022/11/09 03:00:03;;;;;;;2.07;1.23;;;12.50;99.90;;;;;;4970482;28;20704;-90
2022/11/09 03:02:28;;;;;;;2.77;1.20;;;12.50;99.90;;;;;;4962106;28;20341;-91
2022/11/09 03:04:54;;;;;;;0.53;0.53;;;12.50;99.90;;;;;;4966563;28;21069;-91
2022/11/09 03:07:20;;;;;;;3.33;0.93;;;12.50;99.90;;;;;;4969232;28;20235;-91
2022/11/09 03:09:45;;;;;;;1.13;1.03;;;12.50;99.90;;;;;;4956125;28;20559;-92
2022/11/09 03:12:44;;;;;;;2.13;0.73;;;12.50;99.90;;;;;;4956291;28;20237;-91
2022/11/09 03:15:07;;;;;;;4.73;1.00;;;12.60;99.90;;;;;;4985103;28;20228;-90
2022/11/09 03:17:33;;;;;;;5.43;1.43;;;12.60;99.90;;;;;;4971073;28;20204;-90
2022/11/09 03:19:59;;;;;;;1.17;0.77;;;12.60;99.90;;;;;;4969682;28;20307;-89
2022/11/09 03:22:25;;;;;;;0.83;0.77;;;12.50;99.90;;;;;;4968675;28;20663;-91
2022/11/09 03:24:51;;;;;;;0.83;0.70;;;12.60;99.90;;;;;;4975163;28;20254;-90
2022/11/09 03:27:16;;;;;;;1.20;0.50;;;12.60;99.90;;;;;;4988223;28;20212;-91
2022/11/09 03:29:42;;;;;;;5.20;0.93;;;12.60;99.90;;;;;;4988938;28;20196;-93
2022/11/09 03:32:08;;;;;;;4.00;1.67;;;12.60;99.90;;;;;;4971704;28;20224;-91
2022/11/09 03:34:34;;;;;;;1.20;0.53;;;12.60;99.90;;;;;;4968902;28;20236;-90
2022/11/09 03:37:00;;;;;;;2.63;1.40;;;12.60;99.90;;;;;;4976124;28;20592;-90
2022/11/09 03:39:25;;;;;;;2.73;1.10;;;12.60;99.90;;;;;;4988415;28;20707;-90
2022/11/09 03:41:51;;;;;;;1.53;1.13;;;12.60;99.90;;;;;;4987892;28;21242;-91
2022/11/09 03:44:18;;;;;;;4.07;0.77;;;12.60;99.90;;;;;;4971476;28;20230;-92
2022/11/09 03:46:44;;;;;;;1.00;0.93;;;12.60;99.90;;;;;;4988144;28;20239;-91
2022/11/09 03:49:10;;;;;;;7.43;1.60;;;12.50;99.90;;;;;;4987508;28;20262;-91
2022/11/09 03:51:36;;;;;;;2.77;1.00;;;12.50;99.90;;;;;;4989021;28;20311;-92
2022/11/09 03:54:02;;;;;;;2.87;1.37;;;12.50;99.90;;;;;;4989588;28;20191;-92
2022/11/09 03:56:28;;;;;;;3.30;1.00;;;12.40;99.90;;;;;;5007284;28;20203;-91
2022/11/09 03:58:53;;;;;;;3.83;1.37;;;12.50;99.90;;;;;;4998204;28;20309;-90
2022/11/09 04:01:19;;;;;;;8.77;1.53;;;12.40;99.90;;;;;;5015158;28;20740;-91
2022/11/09 04:03:45;;;;;;;1.10;0.87;;;12.40;99.90;;;;;;4990030;28;20281;-91
2022/11/09 04:06:10;;;;;;;2.43;1.43;;;12.40;99.90;;;;;;4997131;28;20220;-92
2022/11/09 04:08:36;;;;;;;2.20;0.90;;;12.40;99.90;;;;;;4997770;28;20191;-91
2022/11/09 04:11:02;;;;;;;3.70;0.70;;;12.40;99.90;;;;;;5008178;28;20227;-92
2022/11/09 04:13:28;;;;;;;1.73;0.87;;;12.50;99.90;;;;;;4981053;28;20580;-93
2022/11/09 04:15:53;;;;;;;1.43;0.90;;;12.50;99.90;;;;;;4998163;28;20227;-91
2022/11/09 04:18:20;;;;;;;4.33;1.23;;;12.50;99.90;;;;;;4997981;28;20217;-89
2022/11/09 04:20:45;;;;;;;1.30;0.50;;;12.50;99.90;;;;;;5014657;28;21035;-91
2022/11/09 04:23:12;;;;;;;9.10;2.30;;;12.60;99.90;;;;;;4980790;28;20334;-91
2022/11/09 04:25:40;;;;;;;3.20;0.83;;;12.60;99.90;;;;;;4999049;28;21147;-92
2022/11/09 04:28:08;;;;;;;1.80;0.67;;;12.70;99.90;;;;;;5008074;28;20231;-91
2022/11/09 04:30:35;;;;;;;2.97;0.77;;;12.70;99.90;;;;;;4996802;28;20218;-92
2022/11/09 04:33:02;;;;;;;4.87;0.50;;;12.70;99.90;;;;;;5007144;28;20357;-93
2022/11/09 04:35:29;;;;;;;1.17;0.83;;;12.70;99.90;;;;;;5008001;28;20223;-92
2022/11/09 04:38:00;;;;;;;1.67;0.80;;;12.70;99.90;;;;;;5022954;28;20248;-92
2022/11/09 04:40:28;;;;;;;2.90;0.80;;;12.70;99.90;;;;;;5016179;28;20242;-92
2022/11/09 04:42:54;;;;;;;1.90;1.13;;;12.60;99.90;;;;;;4999953;28;20219;-90
2022/11/09 04:45:20;;;;;;;1.60;0.83;;;12.60;99.90;;;;;;4998664;28;20253;-91
2022/11/09 04:47:46;;;;;;;2.60;1.90;;;12.60;99.90;;;;;;5008438;28;20287;-92
2022/11/09 04:50:13;;;;;;;1.07;1.03;;;12.60;99.90;;;;;;4973649;28;20237;-90
2022/11/09 04:52:39;;;;;;;8.83;0.80;;;12.60;99.90;;;;;;4997357;28;20306;-89
2022/11/09 04:55:05;;;;;;;2.87;0.97;;;12.50;99.90;;;;;;4998330;28;20235;-90
2022/11/09 04:57:31;;;;;;;2.10;0.77;;;12.50;99.90;;;;;;4998823;28;20230;-91
2022/11/09 04:59:57;;;;;;;2.30;1.73;;;12.40;99.90;;;;;;5007688;28;20191;-92
2022/11/09 05:02:22;;;;;;;0.80;0.70;;;12.40;99.90;;;;;;4997531;28;20708;-91
2022/11/09 05:04:48;;;;;;;8.37;1.37;;;12.40;99.90;;;;;;4995254;28;20277;-90
2022/11/09 05:07:14;;;;;;;0.60;0.60;;;12.40;99.90;;;;;;4981344;28;20235;-91
2022/11/09 05:09:40;;;;;;;2.57;0.83;;;12.40;99.90;;;;;;4995335;28;20222;-90
2022/11/09 05:12:05;;;;;;;1.10;0.80;;;12.30;99.90;;;;;;4997928;28;20195;-90
2022/11/09 05:14:31;;;;;;;3.13;1.40;;;12.30;99.90;;;;;;4998201;28;20660;-92
2022/11/09 05:16:57;;;;;;;3.57;1.03;;;12.30;99.90;;;;;;4995750;28;20223;-90
2022/11/09 05:19:22;;;;;;;1.87;1.43;;;12.30;99.90;;;;;;4996712;28;20234;-91
2022/11/09 05:21:48;;;;;;;0.73;0.60;;;12.30;99.90;;;;;;4996325;28;20223;-89
2022/11/09 05:24:14;;;;;;;1.77;0.80;;;12.40;99.90;;;;;;4997646;28;20187;-91
2022/11/09 05:26:41;;;;;;;4.47;1.57;;;12.40;99.90;;;;;;5007882;28;20660;-92
2022/11/09 05:29:10;;;;;;;3.40;0.77;;;12.40;99.90;;;;;;4998272;28;20314;-91
2022/11/09 05:31:36;;;;;;;0.20;0.20;;;12.40;99.90;;;;;;5006674;28;20223;-91
2022/11/09 05:34:04;;;;;;;3.17;0.97;;;12.40;99.90;;;;;;4997299;28;20219;-91
2022/11/09 05:36:32;;;;;;;10.13;1.67;;;12.40;99.90;;;;;;4995596;28;20227;-89
2022/11/09 05:38:58;;;;;;;4.73;1.60;;;12.30;99.90;;;;;;5005918;28;20190;-92
2022/11/09 05:41:25;;;;;;;1.20;0.67;;;12.30;99.90;;;;;;5006724;28;20273;-91
2022/11/09 05:43:51;;;;;;;0.90;0.90;;;12.30;99.90;;;;;;5006922;28;20231;-91
2022/11/09 05:46:17;;;;;;;0.97;0.93;;;12.20;99.90;;;;;;4996637;28;20223;-91
2022/11/09 05:48:44;;;;;;;3.77;1.37;;;12.20;99.90;;;;;;4997525;28;20233;-91
2022/11/09 05:51:12;;;;;;;2.37;1.00;;;12.20;99.90;;;;;;4997859;28;20188;-93
2022/11/09 05:53:38;;;;;;;2.40;1.20;;;12.10;99.90;;;;;;5030044;28;21001;-92
2022/11/09 05:56:09;;;;;;;10.57;1.10;;;12.10;99.90;;;;;;5009053;28;20239;-90
2022/11/09 05:58:37;;;;;;;0.57;0.57;;;12.10;99.90;;;;;;5023164;28;20305;-93
2022/11/09 06:01:11;;;;;;;7.20;2.30;;;12.10;99.90;;;;;;5015353;28;20289;-91
2022/11/09 06:03:37;;;;;;;0.80;0.80;;;12.10;99.90;;;;;;4994138;28;20843;-92
2022/11/09 06:06:06;;;;;;;8.33;1.10;;;12.10;99.90;;;;;;5032013;28;20211;-91
2022/11/09 06:08:32;;;;;;;1.07;1.00;;;12.00;99.90;;;;;;5010691;28;20179;-91
2022/11/09 06:11:00;;;;;;;3.40;0.93;;;12.00;99.90;;;;;;5010163;28;20219;-91
2022/11/09 06:13:25;;;;;;;3.60;1.60;;;12.00;99.90;;;;;;4994548;28;20238;-91
2022/11/09 06:15:53;;;;;;;2.17;0.60;;;12.00;99.90;;;;;;5010023;28;20231;-93
2022/11/09 06:18:19;;;;;;;3.20;1.10;;;12.00;99.90;;;;;;4992010;28;20191;-92
2022/11/09 06:20:45;;;;;;;1.17;0.73;;;11.90;99.90;;;;;;5009324;28;20191;-92
2022/11/09 06:23:11;;;;;;;2.40;1.40;;;12.00;99.90;;;;;;5033618;28;20794;-92
2022/11/09 06:25:36;;;;;;;0.70;0.70;;;12.00;99.90;;;;;;5000165;28;20321;-94
2022/11/09 06:28:02;;;;;;;4.93;1.40;;;12.00;99.90;;;;;;5018924;28;20316;-93
2022/11/09 06:30:28;;;;;;;2.40;1.10;;;12.00;99.90;;;;;;5017963;28;20219;-93
2022/11/09 06:33:01;;;;;;;0.90;0.90;;;11.90;99.90;;;;;;4995531;28;20195;-90
2022/11/09 06:35:27;;;;;;;2.03;1.43;;;11.90;99.90;;;;;;5009464;28;20223;-91
2022/11/09 06:37:56;;;;;;;4.17;0.73;;;11.90;99.90;;;;;;4983370;28;20219;-92
2022/11/09 06:40:21;;;;;;;1.57;0.90;;;11.90;99.90;;;;;;5009804;28;20269;-92
2022/11/09 06:42:47;;;;;;;3.23;2.10;;;11.90;99.90;;;;;;4997564;28;20219;-92
2022/11/09 06:45:13;;;;;;;13.10;1.47;;;11.80;99.90;;;;;;5019366;28;20883;-90
2022/11/09 06:47:39;;;;;;;0.73;0.73;;;11.80;99.90;;;;;;5003972;28;20202;-91
2022/11/09 06:50:05;;;;;;;5.87;1.43;;;11.80;99.90;;;;;;4998463;28;20219;-91
2022/11/09 06:52:30;;;;;;;8.10;0.97;;;11.80;99.90;;;;;;5016356;28;20302;-91
2022/11/09 06:54:56;;;;;;;1.43;1.27;;;11.70;99.90;;;;;;4992783;28;20306;-93
2022/11/09 06:57:22;;;;;;;4.03;1.33;;;11.70;99.90;;;;;;5011396;28;20179;-91
2022/11/09 06:59:48;;;;;;;5.37;1.70;;;11.70;99.90;;;;;;5018555;28;20695;-91
2022/11/09 07:02:18;;;;;;;2.83;1.33;;;11.70;99.90;;;;;;5016980;28;20672;-92
2022/11/09 07:04:44;;;;;;;10.47;1.70;;;11.70;99.90;;;;;;5012761;28;20563;-93
2022/11/09 07:07:10;;;;;;;3.87;0.70;;;11.70;99.90;;;;;;4985065;28;20227;-92
2022/11/09 07:09:36;;;;;;;0.97;0.97;;;11.80;99.90;;;;;;4985230;28;20272;-89
2022/11/09 07:12:02;;;;;;;0.70;0.70;;;11.90;99.90;;;;;;5000396;28;20191;-95
2022/11/09 07:14:28;;;;;;;4.10;0.90;;;11.90;99.90;;;;;;5015286;28;20218;-94
2022/11/09 07:16:54;;;;;;;8.00;1.27;;;12.00;99.90;;;;;;5031923;28;20360;-91
2022/11/09 07:19:23;;;;;;;1.17;0.73;;;12.20;99.90;;;;;;5044630;22;20314;-90
2022/11/09 07:21:48;;;;;;;4.10;1.53;;;12.30;99.90;;;;;;4982291;28;20224;-90
2022/11/09 07:24:14;;;;;;;13.53;1.87;;;12.30;99.90;;;;;;4974713;28;20180;-93
2022/11/09 07:26:40;;;;;;;6.40;1.27;;;12.50;99.90;;;;;;4988370;28;20208;-93
2022/11/09 07:29:06;;;;;;;2.40;1.10;;;12.60;99.90;;;;;;4973784;28;20225;-95
2022/11/09 07:31:32;;;;;;;3.37;1.00;;;12.60;99.90;;;;;;4994794;28;20207;-93
2022/11/09 07:34:03;;;;;;;2.40;1.20;;;12.60;99.90;;;;;;5003138;28;20212;-95
2022/11/09 07:36:30;;;;;;;1.83;0.97;;;12.80;99.90;;;;;;4985726;28;20220;-94
2022/11/09 07:41:30;;;;;;;3.60;0.67;;;13.10;99.90;;;;;;5011660;28;20235;-92
2022/11/09 07:43:57;;;;;;;2.27;0.80;;;13.30;99.90;;;;;;4985813;28;20215;-92
2022/11/09 07:46:22;;;;;;;4.63;1.30;;;13.30;99.90;;;;;;4989623;28;20710;-94
2022/11/09 07:48:48;;;;;;;0.70;0.67;;;13.80;99.90;;;;;;4955966;28;20218;-95
2022/11/09 07:51:14;;;;;;;1.13;0.67;;;13.90;99.90;;;;;;4973434;28;20231;-95
2022/11/09 07:53:40;;;;;;;0.70;0.70;;;13.90;99.90;;;;;;4949753;28;20644;-94
2022/11/09 07:56:06;;;;;;;1.37;0.80;;;13.60;99.90;;;;;;4942573;28;20351;-94
2022/11/09 07:58:33;;;;;;;2.50;0.80;;;14.10;99.90;;;;;;4948121;28;20220;-95
2022/11/09 08:00:59;;;;;;;4.07;1.00;;;14.30;99.90;;;;;;4953540;28;20219;-94
2022/11/09 08:03:25;;;;;;;3.23;1.80;;;14.10;99.90;;;;;;4999328;28;20301;-94
2022/11/09 08:05:51;;;;;;;1.90;1.00;;;13.50;99.90;;;;;;4970822;28;20215;-95
2022/11/09 08:08:17;;;;;;;1.37;0.97;;;13.20;99.90;;;;;;4990048;28;20295;-96
2022/11/09 08:10:44;;;;;;;1.03;0.83;;;12.90;99.90;;;;;;4945100;28;20311;-93
2022/11/09 08:13:12;;;;;;;1.33;0.73;;;12.80;99.90;;;;;;4970549;28;20283;-94
2022/11/09 08:15:39;;;;;;;3.57;1.07;;;12.80;99.90;;;;;;4962116;28;20223;-95
2022/11/09 08:18:09;;;;;;;11.40;1.03;;;12.70;99.90;;;;;;4973355;28;20206;-94
2022/11/09 08:20:35;;;;;;;1.07;0.97;;;12.70;99.90;;;;;;4972957;28;20259;-92
2022/11/09 08:23:01;;;;;;;1.00;0.97;;;12.60;99.90;;;;;;4948764;28;20358;-94
2022/11/09 08:25:27;;;;;;;2.37;1.57;;;12.60;99.90;;;;;;4972661;28;20251;-95
2022/11/09 08:27:55;;;;;;;2.67;1.07;;;12.60;99.90;;;;;;4948387;28;20240;-94
2022/11/09 08:30:23;;;;;;;5.13;1.67;;;12.50;99.90;;;;;;4971226;28;20184;-94
2022/11/09 08:32:49;;;;;;;0.60;0.60;;;12.60;99.90;;;;;;4964251;28;20184;-92
2022/11/09 08:35:19;;;;;;;4.90;0.83;;;12.60;99.90;;;;;;4971793;28;20250;-92
2022/11/09 08:37:48;;;;;;;4.27;1.13;;;12.80;99.90;;;;;;4977880;28;20224;-92
2022/11/09 08:40:15;;;;;;;4.93;1.60;;;12.80;99.90;;;;;;4969842;28;20326;-93
2022/11/09 08:42:42;;;;;;;1.23;0.87;;;12.80;99.90;;;;;;4974823;28;20220;-93
2022/11/09 08:45:08;;;;;;;4.87;1.50;;;12.90;99.90;;;;;;4970647;28;20246;-93
2022/11/09 08:47:34;;;;;;;1.17;1.17;;;12.90;99.90;;;;;;4971456;28;20242;-92
2022/11/09 08:50:03;;;;;;;1.13;0.80;;;13.00;99.90;;;;;;4965409;28;20208;-92
2022/11/09 08:52:29;;;;;;;2.63;1.23;;;13.00;99.90;;;;;;4970603;28;20633;-93
2022/11/09 08:54:55;;;;;;;6.87;1.27;;;13.10;99.90;;;;;;4970403;28;20295;-93
2022/11/09 08:57:21;;;;;;;1.73;0.70;;;13.20;99.90;;;;;;4954654;28;20287;-92
2022/11/09 08:59:47;;;;;;;7.50;2.10;;;13.20;99.90;;;;;;4947734;28;20195;-92
2022/11/09 09:02:13;;;;;;;3.83;0.70;;;13.10;99.90;;;;;;4954884;28;20210;-93
2022/11/09 09:04:39;;;;;;;9.20;1.87;;;13.10;99.90;;;;;;4936994;28;20216;-94
2022/11/09 09:07:11;;;;;;;1.10;0.70;;;13.20;99.90;;;;;;4958821;28;20240;-96
2022/11/09 09:09:43;;;;;;;5.77;1.10;;;13.20;99.90;;;;;;5003264;28;20226;-94
2022/11/09 09:12:31;;;;;;;0.80;0.63;;;13.30;99.90;;;;;;5008665;28;20209;-95
2022/11/09 09:14:59;;;;;;;8.20;1.17;;;13.40;99.90;;;;;;5016097;28;20191;-95
2022/11/09 09:17:25;;;;;;;2.57;1.13;;;13.50;99.90;;;;;;5009684;28;20215;-94
2022/11/09 09:19:52;;;;;;;5.93;1.67;;;13.50;99.90;;;;;;4995710;28;20311;-96
2022/11/09 09:22:23;;;;;;;1.33;0.53;;;13.40;99.90;;;;;;4994074;28;20211;-94
2022/11/09 09:24:49;;;;;;;3.90;0.83;;;13.30;99.90;;;;;;5017044;28;20226;-94
2022/11/09 09:27:15;;;;;;;7.47;1.10;;;13.30;99.90;;;;;;5009840;28;20210;-93
2022/11/09 09:29:41;;;;;;;1.07;0.83;;;13.40;99.90;;;;;;5004622;28;20290;-92
2022/11/09 09:32:06;;;;;;;0.40;0.40;;;13.40;99.90;;;;;;4974426;28;20223;-93
2022/11/09 09:34:35;;;;;;;3.80;1.77;;;13.50;99.90;;;;;;4990308;28;20216;-93
2022/11/09 09:37:01;;;;;;;7.10;1.47;;;13.60;99.90;;;;;;4993068;28;20223;-91
2022/11/09 09:39:27;;;;;;;0.53;0.53;;;13.70;99.90;;;;;;4989440;28;20239;-92
2022/11/09 09:41:59;;;;;;;1.43;0.90;;;13.80;99.90;;;;;;4990271;28;20206;-91
2022/11/09 09:44:44;;;;;;;2.00;0.80;;;14.00;99.90;;;;;;5001050;28;20211;-93
2022/11/09 09:47:15;;;;;;;1.13;0.63;;;14.00;99.90;;;;;;4994334;28;20246;-93
2022/11/09 09:49:54;;;;;;;2.23;0.90;;;14.20;99.90;;;;;;5009145;28;20226;-95
2022/11/09 09:52:36;;;;;;;1.47;0.70;;;14.30;99.90;;;;;;5001771;28;20218;-93
2022/11/09 09:55:15;;;;;;;2.40;1.07;;;14.20;99.90;;;;;;5015755;28;20310;-91
2022/11/09 09:57:45;;;;;;;4.27;1.40;;;14.10;99.90;;;;;;5008037;28;20219;-93
2022/11/09 10:00:23;;;;;;;3.40;0.70;;;14.10;99.90;;;;;;5002813;28;20210;-93
2022/11/09 10:02:51;;;;;;;1.67;1.00;;;14.20;99.90;;;;;;5007741;28;20199;-94
2022/11/09 10:05:18;;;;;;;6.73;0.80;;;14.20;99.90;;;;;;4997086;28;20210;-94
2022/11/09 10:07:56;;;;;;;1.77;1.63;;;14.20;99.90;;;;;;5005699;28;20227;-92
2022/11/09 10:10:55;;;;;;;7.20;1.23;;;14.20;99.90;;;;;;5006163;28;20377;-94
2022/11/09 10:14:05;;;;;;;1.07;0.50;;;14.30;99.90;;;;;;5006102;28;20237;-93
2022/11/09 10:16:45;;;;;;;0.87;0.87;;;14.20;99.90;;;;;;5007998;28;20219;-95
2022/11/09 10:19:42;;;;;;;3.27;1.20;;;14.10;99.90;;;;;;5013399;28;20223;-95
2022/11/09 10:22:28;;;;;;;0.70;0.50;;;14.10;99.90;;;;;;5021543;28;20226;-94
2022/11/09 10:25:20;;;;;;;1.43;0.60;;;14.00;99.90;;;;;;5015869;28;20223;-95
2022/11/09 10:27:54;;;;;;;1.40;1.27;;;14.00;99.90;;;;;;5007606;28;20629;-92
2022/11/09 10:30:22;;;;;;;3.30;1.43;;;14.10;99.90;;;;;;5006039;28;20195;-96
2022/11/09 10:32:50;;;;;;;8.60;1.27;;;14.30;99.90;;;;;;4995971;28;20188;-94
2022/11/09 10:35:26;;;;;;;2.80;1.40;;;14.20;99.90;;;;;;5006546;28;20225;-95
2022/11/09 10:37:58;;;;;;;11.47;0.83;;;14.30;99.90;;;;;;5007618;28;20227;-96
2022/11/09 10:40:33;;;;;;;3.60;1.57;;;14.10;99.90;;;;;;4987654;28;20522;-93
2022/11/09 10:43:04;;;;;;;1.93;1.43;;;14.20;99.90;;;;;;5017959;28;20210;-93
2022/11/09 10:45:39;;;;;;;0.37;0.30;;;14.30;99.90;;;;;;5007869;28;20219;-93
2022/11/09 10:48:08;;;;;;;1.10;0.97;;;14.20;99.90;;;;;;5006771;28;20625;-94
2022/11/09 10:50:50;;;;;;;7.73;1.93;;;14.20;99.90;;;;;;5006591;28;20183;-92
2022/11/09 10:53:21;;;;;;;7.50;2.27;;;14.30;99.90;;;;;;5009574;28;20626;-92
2022/11/09 10:55:55;;;;;;;2.53;1.90;;;14.20;99.90;;;;;;4995855;28;20346;-93
2022/11/09 10:58:26;;;;;;;6.63;3.30;;;14.00;99.90;;;;;;5011241;28;20210;-94
2022/11/09 11:00:59;;;;;;;1.63;1.23;;;14.00;99.90;;;;;;5026734;28;20219;-93
2022/11/09 11:03:44;;;;;;;3.67;2.23;;;14.00;99.90;;;;;;5002714;28;20226;-96
2022/11/09 11:06:30;;;;;;;5.10;1.70;;;14.00;99.90;;;;;;5029480;28;20243;-96
2022/11/09 11:09:05;;;;;;;2.73;1.40;;;14.00;99.90;;;;;;5015996;28;20278;-96
2022/11/09 11:11:40;;;;;;;2.60;1.80;;;14.10;99.90;;;;;;5034834;28;20199;-96
2022/11/09 11:14:46;;;;;;;3.00;1.30;;;14.00;99.90;;;;;;5015925;28;20221;-96
2022/11/09 11:17:28;;;;;;;3.27;2.97;;;14.10;99.90;;;;;;5010028;28;20291;-96
2022/11/09 11:20:41;;;;;;;6.53;2.37;;;14.10;99.90;;;;;;5011326;28;20287;-96
2022/11/09 11:23:14;;;;;;;4.97;3.37;;;14.10;99.90;;;;;;5035592;28;20295;-96
2022/11/09 11:26:22;;;;;;;9.03;5.23;;;14.20;99.90;;;;;;5025803;28;20307;-95
2022/11/09 11:32:37;;;;;;;7.73;2.77;;;14.10;99.90;;;;;;4968370;28;20263;-90
2022/11/09 11:35:36;;;;;;;8.33;2.17;;;14.10;99.90;;;;;;4969149;28;20619;-92
2022/11/09 11:38:25;;;;;;;8.77;6.63;;;14.10;99.90;;;;;;4970903;28;20232;-92
2022/11/09 11:41:00;;;;;;;5.60;2.33;;;14.10;99.90;;;;;;4964107;28;20217;-90
2022/11/09 11:43:52;;;;;;;4.93;3.93;;;14.00;99.90;;;;;;4968771;28;20640;-91
2022/11/09 11:46:38;;;;;;;5.23;3.57;;;14.00;99.90;;;;;;4970935;28;20225;-93
2022/11/09 11:49:24;;;;;;;3.33;1.87;;;13.90;99.90;;;;;;4970276;28;20220;-92
2022/11/09 11:52:09;;;;;;;2.53;1.57;;;13.70;99.90;;;;;;4967794;28;20254;-93
2022/11/09 11:55:04;;;;;;;2.20;1.37;;;13.70;99.90;;;;;;4968728;28;21147;-90
2022/11/09 11:58:01;;;;;;;1.53;1.00;;;13.50;99.90;;;;;;4984266;28;20663;-91
2022/11/09 12:00:29;;;;;;;2.30;1.90;;;13.30;99.90;;;;;;4969511;28;20220;-93
2022/11/09 12:03:16;;;;;;;11.07;1.87;;;13.30;99.90;;;;;;4968985;28;20184;-90
2022/11/09 12:05:54;;;;;;;2.10;1.77;;;13.30;99.90;;;;;;4968374;28;20242;-90
2022/11/09 12:08:44;;;;;;;16.20;2.20;;;13.20;99.90;;;;;;4967551;28;20220;-92
2022/11/09 12:11:38;;;;;;;5.83;1.63;;;13.10;99.90;;;;;;4968618;28;20216;-93
2022/11/09 12:14:12;;;;;;;5.10;1.80;;;13.10;99.90;;;;;;4967654;28;20231;-93
2022/11/09 12:16:47;;;;;;;7.03;1.90;;;13.00;99.90;;;;;;4968254;28;20239;-94
2022/11/09 12:19:23;;;;;;;6.70;1.53;;;13.00;99.90;;;;;;4970693;28;20648;-94
2022/11/09 12:22:19;;;;;;;5.07;1.40;;;12.90;99.90;;;;;;4969097;28;20690;-94
2022/11/09 12:24:56;;;;;;;4.83;0.90;;;12.80;99.90;;;;;;4983561;28;20220;-92
2022/11/09 12:27:28;;;;;;;0.57;0.57;;;12.70;99.90;;;;;;4968184;28;20211;-92
2022/11/09 12:30:09;;;;;;;0.70;0.60;;;12.70;99.90;;;;;;4970848;28;20195;-92
2022/11/09 12:32:48;;;;;;;0.27;0.27;;;12.60;99.90;;;;;;4967859;28;20698;-91
2022/11/09 12:35:40;;;;;;;3.43;0.93;;;12.50;99.90;;;;;;4968390;28;20224;-91
2022/11/09 12:38:18;;;;;;;1.27;1.07;;;12.60;99.90;;;;;;4983749;28;20238;-91
2022/11/09 12:41:04;;;;;;;0.33;0.33;;;12.50;99.90;;;;;;4968778;28;20227;-89
2022/11/09 12:43:52;;;;;;;0.87;0.63;;;12.40;99.90;;;;;;4983369;28;20219;-88
2022/11/09 12:46:23;;;;;;;0.57;0.37;;;12.50;99.90;;;;;;4967355;28;20225;-89
2022/11/09 12:48:49;;;;;;;0.50;0.30;;;12.40;99.90;;;;;;4968782;28;20224;-89
2022/11/09 12:51:16;;;;;;;0.37;0.37;;;12.30;99.90;;;;;;4936982;28;20503;-92
2022/11/09 12:53:42;;;;;;;0.60;0.60;;;12.30;99.90;;;;;;4955340;28;20200;-89
2022/11/09 12:56:33;;;;;;;0.20;0.20;;;12.40;99.90;;;;;;4952588;28;20224;-89
2022/11/09 12:59:27;;;;;;;3.37;0.53;;;12.40;99.90;;;;;;4967531;28;20255;-87
2022/11/09 13:01:56;;;;;;;0.67;0.67;;;12.40;99.90;;;;;;4969421;28;20284;-91
2022/11/09 13:04:23;;;;;;;0.87;0.87;;;12.40;99.90;;;;;;4991597;28;20220;-87
2022/11/09 13:07:08;;;;;;;2.33;0.57;;;12.40;99.90;;;;;;4976072;28;20224;-88
2022/11/09 13:09:34;;;;;;;1.27;0.77;;;12.40;99.90;;;;;;4978771;28;20263;-85